Time;durP1;ratioP1;P1;durP2;ratioP2;P2;SDS_P1;SDS_P2;PMS_P1;PMS_P2;Temp;Humidity;BMP_temperature;BMP_pressure;BME280_temperature;BME280_humidity;BME280_pressure;Samples;Min_cycle;Max_cycle;Signal;HPM_P1;HPM_P2
2021/07/02 00:01:55;;;;;;;3.97;3.20;;;19.20;99.90;;;;;;5011528;28;20034;-88
2021/07/02 00:04:21;;;;;;;5.13;3.72;;;18.80;99.90;;;;;;5013499;28;20022;-88
2021/07/02 00:06:46;;;;;;;5.30;3.70;;;18.80;99.90;;;;;;5011626;28;20030;-89
2021/07/02 00:09:12;;;;;;;3.70;3.40;;;18.80;99.90;;;;;;5013783;28;20025;-88
2021/07/02 00:11:38;;;;;;;3.72;3.30;;;18.90;99.90;;;;;;5013150;28;20046;-91
2021/07/02 00:14:04;;;;;;;4.75;3.33;;;18.90;99.90;;;;;;5010719;28;20034;-89
2021/07/02 00:16:33;;;;;;;4.30;3.72;;;19.00;99.90;;;;;;5012806;28;20029;-89
2021/07/02 00:18:59;;;;;;;5.10;3.15;;;18.80;99.90;;;;;;5012704;28;20101;-89
2021/07/02 00:21:24;;;;;;;6.75;3.60;;;18.80;99.90;;;;;;5013319;28;20111;-89
2021/07/02 00:23:50;;;;;;;6.50;3.95;;;18.80;99.90;;;;;;5011470;28;20502;-89
2021/07/02 00:26:15;;;;;;;5.00;3.60;;;18.70;99.90;;;;;;5027688;28;20033;-89
2021/07/02 00:28:41;;;;;;;4.82;3.50;;;18.70;99.90;;;;;;5012849;28;20470;-89
2021/07/02 00:31:06;;;;;;;3.88;3.50;;;18.50;99.90;;;;;;5012560;28;20030;-89
2021/07/02 00:33:32;;;;;;;5.20;3.17;;;18.40;99.90;;;;;;5012774;28;20073;-89
2021/07/02 00:35:58;;;;;;;5.03;3.63;;;18.40;99.90;;;;;;5024006;28;20041;-89
2021/07/02 00:38:23;;;;;;;4.95;3.97;;;18.40;99.90;;;;;;5005672;28;20030;-89
2021/07/02 00:40:49;;;;;;;3.65;3.30;;;18.40;99.90;;;;;;5011143;28;20046;-88
2021/07/02 00:43:15;;;;;;;6.35;3.75;;;18.40;99.90;;;;;;5012574;28;20429;-88
2021/07/02 00:45:41;;;;;;;6.13;3.35;;;18.60;99.90;;;;;;5013199;28;20759;-88
2021/07/02 00:48:06;;;;;;;4.95;3.83;;;18.20;99.90;;;;;;5011493;28;20032;-89
2021/07/02 00:50:32;;;;;;;4.78;3.58;;;18.20;99.90;;;;;;5012322;28;20022;-88
2021/07/02 00:52:58;;;;;;;6.05;3.83;;;18.20;99.90;;;;;;5012760;28;20026;-89
2021/07/02 00:55:23;;;;;;;5.93;3.67;;;18.20;99.90;;;;;;5011511;28;20441;-89
2021/07/02 00:57:49;;;;;;;6.55;3.60;;;18.10;99.90;;;;;;5012576;28;20450;-90
2021/07/02 01:00:15;;;;;;;5.20;3.90;;;18.00;99.90;;;;;;5011875;28;20026;-89
2021/07/02 01:02:41;;;;;;;5.68;3.90;;;18.00;99.90;;;;;;5010781;28;20022;-89
2021/07/02 01:05:08;;;;;;;6.63;4.07;;;18.10;99.90;;;;;;5012376;28;20037;-89
2021/07/02 01:07:34;;;;;;;4.55;4.15;;;18.10;99.90;;;;;;5011451;28;20572;-89
2021/07/02 01:10:00;;;;;;;4.85;4.07;;;18.00;99.90;;;;;;5011232;28;20022;-87
2021/07/02 01:12:26;;;;;;;6.75;4.07;;;18.00;99.90;;;;;;5012473;28;20156;-89
2021/07/02 01:14:52;;;;;;;4.78;4.10;;;18.00;99.90;;;;;;5011968;28;20099;-88
2021/07/02 01:17:18;;;;;;;5.72;3.75;;;18.10;99.90;;;;;;5011974;28;20029;-89
2021/07/02 01:19:52;;;;;;;5.28;4.60;;;18.00;99.90;;;;;;5011045;28;20030;-89
2021/07/02 01:22:25;;;;;;;5.88;3.95;;;17.90;99.90;;;;;;4997787;28;20490;-88
2021/07/02 01:24:52;;;;;;;7.10;3.90;;;17.80;99.90;;;;;;5012226;28;20046;-88
2021/07/02 01:27:18;;;;;;;6.00;4.00;;;17.80;99.90;;;;;;5012032;28;20633;-89
2021/07/02 01:29:44;;;;;;;5.63;3.80;;;17.80;99.90;;;;;;5011477;28;20739;-88
2021/07/02 01:32:10;;;;;;;5.22;4.10;;;17.80;99.90;;;;;;5011592;28;20026;-88
2021/07/02 01:34:38;;;;;;;5.03;3.72;;;17.70;99.90;;;;;;5013049;28;20022;-89
2021/07/02 01:37:05;;;;;;;4.63;4.18;;;17.70;99.90;;;;;;5011749;28;20061;-89
2021/07/02 01:39:30;;;;;;;4.82;4.10;;;17.70;99.90;;;;;;5011401;28;20076;-89
2021/07/02 01:41:56;;;;;;;4.70;3.75;;;17.60;99.90;;;;;;5011522;28;20438;-89
2021/07/02 01:44:22;;;;;;;5.45;3.88;;;17.50;99.90;;;;;;5012115;28;20052;-89
2021/07/02 01:46:49;;;;;;;7.28;4.05;;;17.60;99.90;;;;;;5010366;28;20030;-89
2021/07/02 01:49:15;;;;;;;8.70;4.55;;;17.50;99.90;;;;;;5011856;28;20394;-89
2021/07/02 01:51:41;;;;;;;4.50;3.90;;;17.60;99.90;;;;;;5012826;28;20095;-88
2021/07/02 01:54:07;;;;;;;5.63;4.10;;;17.60;99.90;;;;;;5011739;28;20538;-88
2021/07/02 01:56:33;;;;;;;4.43;4.00;;;17.50;99.90;;;;;;5009327;28;20438;-89
2021/07/02 01:58:58;;;;;;;5.45;4.40;;;17.60;99.90;;;;;;5011922;28;20169;-89
2021/07/02 02:01:24;;;;;;;6.05;4.40;;;17.60;99.90;;;;;;5011899;28;20022;-89
2021/07/02 02:03:53;;;;;;;5.30;4.30;;;17.60;99.90;;;;;;5012383;28;20606;-88
2021/07/02 02:06:18;;;;;;;4.20;3.72;;;17.60;99.90;;;;;;5012565;28;20117;-89
2021/07/02 02:08:44;;;;;;;5.72;3.67;;;17.40;99.90;;;;;;5010266;28;20550;-89
2021/07/02 02:11:10;;;;;;;4.78;4.05;;;17.30;1.00;;;;;;5011548;28;20030;-88
2021/07/02 02:13:35;;;;;;;6.05;4.38;;;17.30;1.00;;;;;;5013910;28;20136;-88
2021/07/02 02:16:01;;;;;;;5.20;4.00;;;17.20;99.90;;;;;;5015763;28;20076;-89
2021/07/02 02:18:27;;;;;;;6.05;3.83;;;17.10;1.00;;;;;;5015353;28;20473;-87
2021/07/02 02:20:52;;;;;;;4.65;4.22;;;17.10;1.00;;;;;;5013729;28;20034;-88
2021/07/02 02:23:18;;;;;;;5.05;3.90;;;17.10;1.00;;;;;;5015096;28;20057;-88
2021/07/02 02:25:43;;;;;;;5.38;3.88;;;17.20;1.00;;;;;;5013676;28;20040;-87
2021/07/02 02:28:09;;;;;;;4.20;3.58;;;17.30;1.00;;;;;;5013767;28;20498;-89
2021/07/02 02:30:36;;;;;;;5.00;4.30;;;17.20;1.00;;;;;;5014083;28;20065;-89
2021/07/02 02:33:06;;;;;;;4.75;3.90;;;17.20;1.00;;;;;;5014879;28;20363;-88
2021/07/02 02:35:33;;;;;;;4.35;3.95;;;17.30;1.00;;;;;;5013631;28;20092;-88
2021/07/02 02:37:59;;;;;;;4.20;3.65;;;17.20;1.00;;;;;;5013975;28;20033;-88
2021/07/02 02:40:25;;;;;;;5.47;3.60;;;17.00;1.00;;;;;;5014350;28;20025;-88
2021/07/02 02:42:51;;;;;;;7.10;4.53;;;16.90;1.00;;;;;;5014441;28;20038;-89
2021/07/02 02:45:16;;;;;;;5.30;4.40;;;17.00;1.00;;;;;;5014868;28;20490;-88
2021/07/02 02:47:42;;;;;;;5.13;3.90;;;17.10;1.00;;;;;;5014571;28;20034;-88
2021/07/02 02:50:08;;;;;;;6.10;4.10;;;16.90;1.00;;;;;;5015127;28;20482;-89
2021/07/02 02:52:34;;;;;;;5.40;4.57;;;16.80;1.00;;;;;;5013587;28;20033;-88
2021/07/02 02:55:00;;;;;;;5.30;4.40;;;16.90;1.00;;;;;;5014987;28;20030;-88
2021/07/02 02:57:26;;;;;;;4.95;4.50;;;16.80;1.00;;;;;;5013924;28;20058;-89
2021/07/02 02:59:52;;;;;;;7.35;4.22;;;16.70;1.00;;;;;;5014751;28;20395;-88
2021/07/02 03:02:18;;;;;;;6.88;4.60;;;16.70;1.00;;;;;;5014225;28;20398;-89
2021/07/02 03:04:43;;;;;;;5.78;4.43;;;16.80;1.00;;;;;;5013936;28;20129;-89
2021/07/02 03:07:09;;;;;;;5.47;4.53;;;16.80;1.00;;;;;;5029272;28;20126;-87
2021/07/02 03:09:35;;;;;;;4.90;4.40;;;17.20;1.00;;;;;;5014281;28;20061;-88
2021/07/02 03:12:01;;;;;;;6.50;4.25;;;16.80;1.00;;;;;;5013814;28;20036;-87
2021/07/02 03:14:27;;;;;;;6.75;4.68;;;16.70;1.00;;;;;;5014107;28;20018;-89
2021/07/02 03:16:53;;;;;;;6.85;4.85;;;16.60;1.00;;;;;;5013529;28;20108;-88
2021/07/02 03:19:19;;;;;;;6.85;4.25;;;16.70;1.00;;;;;;5013212;28;20022;-88
2021/07/02 03:21:45;;;;;;;7.10;4.57;;;16.70;1.00;;;;;;5014127;28;20032;-88
2021/07/02 03:24:12;;;;;;;6.90;4.90;;;16.70;1.00;;;;;;5012321;28;20567;-88
2021/07/02 03:26:38;;;;;;;4.95;4.45;;;16.60;1.00;;;;;;5014161;28;20068;-88
2021/07/02 03:29:04;;;;;;;5.63;4.50;;;16.60;1.00;;;;;;5013681;28;20093;-88
2021/07/02 03:31:30;;;;;;;7.25;4.63;;;16.60;1.00;;;;;;5013442;28;20442;-89
2021/07/02 03:33:56;;;;;;;5.00;4.10;;;16.60;1.00;;;;;;5013751;28;20117;-88
2021/07/02 03:36:21;;;;;;;6.38;4.63;;;16.40;1.00;;;;;;5014250;28;20065;-88
2021/07/02 03:38:47;;;;;;;6.72;4.38;;;16.80;1.00;;;;;;5013255;28;20049;-88
2021/07/02 03:41:13;;;;;;;5.60;4.82;;;16.40;1.00;;;;;;5013652;28;20544;-88
2021/07/02 03:43:38;;;;;;;5.57;4.93;;;16.40;1.00;;;;;;5011990;28;20445;-88
2021/07/02 03:46:04;;;;;;;7.47;4.90;;;16.30;1.00;;;;;;5012461;28;20137;-88
2021/07/02 03:48:30;;;;;;;7.30;4.65;;;16.40;1.00;;;;;;5013700;28;20018;-88
2021/07/02 03:50:56;;;;;;;8.00;4.65;;;16.40;1.00;;;;;;5013533;28;20071;-88
2021/07/02 03:53:21;;;;;;;6.68;4.60;;;16.30;1.00;;;;;;5011658;28;20068;-88
2021/07/02 03:55:47;;;;;;;7.53;5.07;;;16.80;1.00;;;;;;5013628;28;20113;-89
2021/07/02 03:58:13;;;;;;;6.78;5.15;;;16.70;1.00;;;;;;5013044;28;20032;-88
2021/07/02 04:00:38;;;;;;;7.57;4.82;;;16.30;1.00;;;;;;5021987;28;20117;-88
2021/07/02 04:03:04;;;;;;;6.95;5.35;;;16.50;1.00;;;;;;5012602;28;20572;-88
2021/07/02 04:05:29;;;;;;;8.27;5.22;;;16.30;1.00;;;;;;5013054;28;20391;-88
2021/07/02 04:07:55;;;;;;;5.70;4.72;;;16.30;1.00;;;;;;5012816;28;20093;-88
2021/07/02 04:10:21;;;;;;;5.70;5.10;;;16.30;1.00;;;;;;5011867;28;20057;-88
2021/07/02 04:12:46;;;;;;;5.68;5.13;;;16.30;1.00;;;;;;5013436;28;20538;-88
2021/07/02 04:15:12;;;;;;;9.65;5.32;;;16.20;1.00;;;;;;5013702;28;20115;-88
2021/07/02 04:17:38;;;;;;;7.93;5.18;;;16.20;1.00;;;;;;5012461;28;20030;-88
2021/07/02 04:20:09;;;;;;;6.78;4.97;;;16.30;1.00;;;;;;5013050;28;20034;-88
2021/07/02 04:22:35;;;;;;;6.68;4.95;;;16.40;1.00;;;;;;5011484;28;20048;-88
2021/07/02 04:25:01;;;;;;;6.95;5.22;;;16.30;1.00;;;;;;5012913;28;20447;-87
2021/07/02 04:27:27;;;;;;;7.32;5.35;;;16.30;1.00;;;;;;5013128;28;20057;-88
2021/07/02 04:29:52;;;;;;;6.68;5.22;;;16.20;1.00;;;;;;5011577;28;20040;-88
2021/07/02 04:32:18;;;;;;;7.28;5.00;;;16.30;1.00;;;;;;5012409;28;20140;-88
2021/07/02 04:34:44;;;;;;;8.27;5.43;;;16.40;1.00;;;;;;5012581;28;20589;-88
2021/07/02 04:37:10;;;;;;;8.07;5.38;;;16.40;1.00;;;;;;5012211;28;20049;-88
2021/07/02 04:39:36;;;;;;;8.07;5.40;;;16.40;1.00;;;;;;5011838;28;20040;-88
2021/07/02 04:42:03;;;;;;;7.57;5.60;;;16.30;1.00;;;;;;5011036;28;20050;-88
2021/07/02 04:44:29;;;;;;;6.10;5.07;;;16.30;1.00;;;;;;5012489;28;20022;-88
2021/07/02 04:46:54;;;;;;;7.10;5.43;;;16.50;1.00;;;;;;5011343;28;20040;-87
2021/07/02 04:49:20;;;;;;;8.98;5.65;;;16.40;1.00;;;;;;5010975;28;20025;-88
2021/07/02 04:51:47;;;;;;;6.72;5.57;;;16.40;1.00;;;;;;5011144;28;20037;-88
2021/07/02 04:54:13;;;;;;;8.68;5.20;;;16.40;1.00;;;;;;5011674;28;20367;-89
2021/07/02 04:56:39;;;;;;;7.05;5.50;;;16.40;1.00;;;;;;5012181;28;20025;-88
2021/07/02 04:59:04;;;;;;;6.57;5.60;;;17.00;1.00;;;;;;5010319;28;20041;-88
2021/07/02 05:01:30;;;;;;;9.25;5.85;;;16.60;1.00;;;;;;5012610;28;20533;-88
2021/07/02 05:03:55;;;;;;;9.45;5.93;;;16.60;1.00;;;;;;5025905;28;20030;-88
2021/07/02 05:06:21;;;;;;;8.07;5.40;;;16.70;1.00;;;;;;5011873;28;20037;-88
2021/07/02 05:08:47;;;;;;;13.70;6.30;;;16.70;1.00;;;;;;5012181;28;20498;-88
2021/07/02 05:11:13;;;;;;;7.93;5.80;;;16.50;1.00;;;;;;5011115;28;20037;-88
2021/07/02 05:13:40;;;;;;;12.23;6.30;;;16.60;1.00;;;;;;5012020;28;20617;-88
2021/07/02 05:16:06;;;;;;;9.07;6.00;;;16.60;1.00;;;;;;5012941;28;20033;-89
2021/07/02 05:18:32;;;;;;;9.73;6.00;;;16.70;1.00;;;;;;5011186;28;20041;-88
2021/07/02 05:20:58;;;;;;;10.65;5.95;;;16.70;1.00;;;;;;5012343;28;20045;-91
2021/07/02 05:23:24;;;;;;;8.68;6.30;;;16.70;1.00;;;;;;5012398;28;20401;-89
2021/07/02 05:25:50;;;;;;;9.30;5.80;;;16.70;1.00;;;;;;5011836;28;20418;-91
2021/07/02 05:28:16;;;;;;;7.53;5.93;;;16.70;1.00;;;;;;5011020;28;20022;-91
2021/07/02 05:30:41;;;;;;;8.85;5.50;;;16.70;1.00;;;;;;5012646;28;20030;-92
2021/07/02 05:33:07;;;;;;;9.20;5.97;;;16.80;1.00;;;;;;5012436;28;20050;-93
2021/07/02 05:35:33;;;;;;;9.18;6.22;;;16.80;1.00;;;;;;5011525;28;20073;-89
2021/07/02 05:37:58;;;;;;;9.65;5.68;;;16.70;1.00;;;;;;5011964;28;20045;-90
2021/07/02 05:40:25;;;;;;;10.93;6.18;;;16.80;1.00;;;;;;5012624;28;20030;-91
2021/07/02 05:42:50;;;;;;;13.00;6.80;;;16.90;1.00;;;;;;5013491;28;20053;-94
2021/07/02 05:45:16;;;;;;;10.43;6.63;;;17.00;1.00;;;;;;5014031;28;20049;-93
2021/07/02 05:47:49;;;;;;;11.05;6.53;;;17.10;1.00;;;;;;5014880;28;20185;-94
2021/07/02 05:50:15;;;;;;;10.23;6.47;;;17.00;1.00;;;;;;5016041;28;20026;-92
2021/07/02 05:52:41;;;;;;;7.72;6.70;;;17.10;1.00;;;;;;5017484;28;20026;-92
2021/07/02 05:55:07;;;;;;;12.35;7.00;;;17.20;1.00;;;;;;5016036;28;20076;-93
2021/07/02 05:57:33;;;;;;;9.95;7.10;;;17.30;1.00;;;;;;5017192;28;20029;-91
2021/07/02 05:59:58;;;;;;;10.85;7.28;;;17.40;1.00;;;;;;5016442;28;20029;-93
2021/07/02 06:02:24;;;;;;;9.23;7.60;;;17.60;99.90;;;;;;5017068;28;20052;-93
2021/07/02 06:04:51;;;;;;;9.45;6.75;;;17.70;99.90;;;;;;5014482;28;20095;-93
2021/07/02 06:07:16;;;;;;;8.70;7.50;;;17.80;99.90;;;;;;5016512;28;20034;-93
2021/07/02 06:09:42;;;;;;;9.35;6.88;;;17.80;99.90;;;;;;5015239;28;20524;-93
2021/07/02 06:12:08;;;;;;;10.80;7.40;;;17.80;99.90;;;;;;5014744;28;20026;-93
2021/07/02 06:14:34;;;;;;;11.45;7.60;;;17.90;99.90;;;;;;5016513;28;20034;-93
2021/07/02 06:17:00;;;;;;;9.90;7.22;;;18.10;99.90;;;;;;5015136;28;20497;-91
2021/07/02 06:20:13;;;;;;;10.25;7.75;;;18.20;99.90;;;;;;5015968;28;20042;-96
2021/07/02 06:22:46;;;;;;;12.38;7.80;;;18.30;99.90;;;;;;5028130;28;20042;-96
2021/07/02 06:25:52;;;;;;;12.02;7.50;;;18.40;99.90;;;;;;5028790;28;20073;-96
2021/07/02 06:29:22;;;;;;;12.50;7.78;;;18.50;99.90;;;;;;5030496;28;20038;-96
2021/07/02 06:31:48;;;;;;;12.55;7.55;;;18.50;99.90;;;;;;5027688;28;20164;-96
2021/07/02 06:34:14;;;;;;;10.55;7.47;;;18.50;99.90;;;;;;5022372;28;20085;-95
2021/07/02 06:36:40;;;;;;;11.23;7.90;;;18.60;99.90;;;;;;5016260;28;20029;-95
2021/07/02 06:39:06;;;;;;;15.27;7.90;;;18.60;99.90;;;;;;5015491;28;20072;-91
2021/07/02 06:41:31;;;;;;;12.10;7.90;;;18.60;99.90;;;;;;5016998;28;20056;-94
2021/07/02 06:43:57;;;;;;;12.93;7.80;;;18.70;99.90;;;;;;5013844;28;20479;-92
2021/07/02 06:46:23;;;;;;;10.43;7.55;;;18.80;99.90;;;;;;5015515;28;20041;-91
2021/07/02 06:48:48;;;;;;;11.07;7.65;;;18.80;99.90;;;;;;5015028;28;20022;-91
2021/07/02 06:51:14;;;;;;;8.57;7.00;;;18.80;99.90;;;;;;5015283;28;20038;-92
2021/07/02 06:53:40;;;;;;;11.57;7.07;;;18.90;99.90;;;;;;5015643;28;20029;-91
2021/07/02 06:56:08;;;;;;;8.77;7.28;;;19.00;99.90;;;;;;5015010;28;20038;-91
2021/07/02 06:58:34;;;;;;;11.52;6.82;;;19.00;99.90;;;;;;5013862;28;20077;-91
2021/07/02 07:00:59;;;;;;;9.23;6.93;;;18.90;99.90;;;;;;5014163;28;20026;-91
2021/07/02 07:03:25;;;;;;;9.05;6.60;;;19.00;99.90;;;;;;5015172;28;20381;-91
2021/07/02 07:05:52;;;;;;;9.50;7.03;;;18.90;99.90;;;;;;5013202;28;20049;-91
2021/07/02 07:08:18;;;;;;;10.18;7.25;;;19.10;99.90;;;;;;5015269;28;20034;-92
2021/07/02 07:10:44;;;;;;;11.05;7.20;;;19.00;99.90;;;;;;5014071;28;20065;-91
2021/07/02 07:13:09;;;;;;;8.38;7.18;;;19.10;99.90;;;;;;5015131;28;20500;-92
2021/07/02 07:15:35;;;;;;;10.27;7.20;;;19.20;99.90;;;;;;5013494;28;20067;-96
2021/07/02 07:18:01;;;;;;;10.25;7.00;;;19.20;99.90;;;;;;5014617;28;20394;-95
2021/07/02 07:20:28;;;;;;;7.72;6.85;;;19.20;99.90;;;;;;5014938;28;20088;-96
2021/07/02 07:22:53;;;;;;;11.48;6.40;;;19.20;99.90;;;;;;5014955;28;20498;-96
2021/07/02 07:25:20;;;;;;;11.70;7.45;;;19.40;99.90;;;;;;5014893;28;20041;-95
2021/07/02 07:27:47;;;;;;;9.13;6.65;;;19.40;99.90;;;;;;5018440;28;20125;-95
2021/07/02 07:30:13;;;;;;;8.13;6.85;;;19.50;99.90;;;;;;5021175;28;20437;-92
2021/07/02 07:32:39;;;;;;;9.88;6.93;;;19.60;99.90;;;;;;5018623;28;20418;-96
2021/07/02 07:35:32;;;;;;;10.27;6.57;;;19.80;99.90;;;;;;5017432;28;20061;-95
2021/07/02 07:37:58;;;;;;;7.88;6.10;;;19.70;99.90;;;;;;5018734;28;20037;-96
2021/07/02 07:40:26;;;;;;;6.82;6.13;;;19.90;99.90;;;;;;5017493;28;20507;-95
2021/07/02 07:42:52;;;;;;;6.82;6.05;;;19.80;99.90;;;;;;5015663;28;20069;-96
2021/07/02 07:45:18;;;;;;;9.68;6.38;;;20.00;99.90;;;;;;5015388;28;20038;-96
2021/07/02 07:47:44;;;;;;;6.90;6.18;;;20.00;99.90;;;;;;5003424;28;20029;-96
2021/07/02 07:50:14;;;;;;;8.70;6.30;;;19.90;99.90;;;;;;5007412;28;20034;-96
2021/07/02 07:52:45;;;;;;;9.93;6.80;;;20.10;99.90;;;;;;5015675;28;20034;-96
2021/07/02 07:55:12;;;;;;;6.22;5.57;;;20.20;99.90;;;;;;5016893;28;20034;-96
2021/07/02 07:57:38;;;;;;;8.35;6.40;;;20.20;99.90;;;;;;4999320;28;20076;-96
2021/07/02 08:00:06;;;;;;;7.30;5.90;;;20.40;99.90;;;;;;5015056;28;20598;-96
2021/07/02 08:02:33;;;;;;;13.60;6.43;;;20.50;99.90;;;;;;5016930;28;20033;-96
2021/07/02 08:04:58;;;;;;;6.85;6.13;;;20.50;99.90;;;;;;5015866;28;20048;-96
2021/07/02 08:07:24;;;;;;;7.07;5.97;;;20.30;99.90;;;;;;5000441;28;20066;-96
2021/07/02 08:09:55;;;;;;;7.65;6.25;;;20.50;99.90;;;;;;5017192;28;20030;-96
2021/07/02 08:12:21;;;;;;;6.97;6.03;;;20.50;99.90;;;;;;5017886;28;20029;-95
2021/07/02 08:14:46;;;;;;;8.27;6.32;;;20.50;99.90;;;;;;5017563;28;20088;-96
2021/07/02 08:17:12;;;;;;;13.00;6.65;;;20.50;99.90;;;;;;5016631;28;20088;-96
2021/07/02 08:19:38;;;;;;;8.07;6.13;;;20.70;99.90;;;;;;5000422;28;20030;-96
2021/07/02 08:22:04;;;;;;;7.45;6.65;;;20.80;99.90;;;;;;5016803;28;20026;-96
2021/07/02 08:24:31;;;;;;;8.73;5.75;;;20.80;99.90;;;;;;5016746;28;20076;-96
2021/07/02 08:26:58;;;;;;;8.98;6.05;;;21.00;99.90;;;;;;5017882;28;20038;-96
2021/07/02 08:29:26;;;;;;;10.45;6.18;;;21.20;99.90;;;;;;5020331;28;20048;-96
2021/07/02 08:31:52;;;;;;;7.65;6.25;;;21.20;99.90;;;;;;5018281;28;20022;-96
2021/07/02 08:34:18;;;;;;;7.65;6.00;;;21.40;99.90;;;;;;5001574;28;20026;-96
2021/07/02 08:36:45;;;;;;;7.55;6.38;;;21.60;99.90;;;;;;5019451;28;20030;-95
2021/07/02 08:39:10;;;;;;;9.30;6.50;;;21.40;99.90;;;;;;4998380;28;20030;-96
2021/07/02 08:41:38;;;;;;;7.30;6.20;;;21.40;99.90;;;;;;5018249;28;20046;-96
2021/07/02 08:44:03;;;;;;;8.27;6.55;;;21.40;99.90;;;;;;5018866;28;20034;-96
2021/07/02 08:46:31;;;;;;;7.00;6.13;;;21.70;99.90;;;;;;5019536;28;20048;-96
2021/07/02 08:48:58;;;;;;;6.57;5.53;;;21.70;99.90;;;;;;5018886;28;20022;-96
2021/07/02 08:51:26;;;;;;;7.40;5.63;;;21.80;99.90;;;;;;5021351;28;20045;-96
2021/07/02 08:53:56;;;;;;;6.65;5.75;;;21.80;99.90;;;;;;5021655;28;20044;-96
2021/07/02 08:56:23;;;;;;;6.75;5.57;;;21.80;99.90;;;;;;5022881;28;20033;-96
2021/07/02 08:58:51;;;;;;;7.57;6.78;;;21.90;99.90;;;;;;5026279;28;20030;-95
2021/07/02 09:01:41;;;;;;;6.43;5.60;;;21.80;99.90;;;;;;5021626;28;20030;-96
2021/07/02 09:04:18;;;;;;;7.10;5.90;;;21.90;99.90;;;;;;5020141;28;20034;-96
2021/07/02 09:07:11;;;;;;;7.07;5.95;;;21.80;99.90;;;;;;5019926;28;20038;-96
2021/07/02 09:09:58;;;;;;;10.45;5.43;;;21.90;99.90;;;;;;5027721;28;20498;-96
2021/07/02 09:12:26;;;;;;;6.70;5.97;;;22.00;99.90;;;;;;5018727;28;20545;-96
2021/07/02 09:15:13;;;;;;;6.80;6.15;;;22.10;99.90;;;;;;5029477;28;20038;-96
2021/07/02 09:17:59;;;;;;;6.57;5.78;;;22.20;99.90;;;;;;5022978;28;20040;-96
2021/07/02 09:20:27;;;;;;;6.40;5.63;;;22.20;99.90;;;;;;5019051;28;20026;-95
2021/07/02 09:22:59;;;;;;;7.15;6.45;;;22.40;99.90;;;;;;5023240;28;20026;-95
2021/07/02 09:25:53;;;;;;;7.65;6.25;;;22.40;99.90;;;;;;5018559;28;20038;-93
2021/07/02 09:28:21;;;;;;;7.60;6.00;;;22.40;99.90;;;;;;5016922;28;20085;-94
2021/07/02 09:30:49;;;;;;;7.15;6.18;;;22.40;99.90;;;;;;5016321;28;20391;-92
2021/07/02 09:33:23;;;;;;;7.25;6.55;;;22.50;99.90;;;;;;5017201;28;20068;-93
2021/07/02 09:35:52;;;;;;;6.85;6.07;;;22.70;99.90;;;;;;5015875;28;20034;-94
2021/07/02 09:38:30;;;;;;;8.70;6.22;;;22.50;99.90;;;;;;5017599;28;20017;-93
2021/07/02 09:40:56;;;;;;;7.68;5.40;;;22.60;99.90;;;;;;5015591;28;20056;-93
2021/07/02 09:43:26;;;;;;;7.82;5.25;;;22.70;99.90;;;;;;5016017;28;20022;-93
2021/07/02 09:46:03;;;;;;;6.90;4.90;;;22.70;99.90;;;;;;5017218;28;20038;-93
2021/07/02 09:48:32;;;;;;;5.80;5.18;;;22.90;99.90;;;;;;5010856;28;20030;-93
2021/07/02 09:50:59;;;;;;;9.95;5.25;;;23.00;99.90;;;;;;5015360;28;20045;-93
2021/07/02 09:53:29;;;;;;;6.03;5.00;;;23.00;99.90;;;;;;5016325;28;20025;-93
2021/07/02 09:55:58;;;;;;;8.13;5.43;;;23.30;99.90;;;;;;5017249;28;20049;-93
2021/07/02 09:58:34;;;;;;;6.05;5.40;;;23.10;99.90;;;;;;5015226;28;20030;-93
2021/07/02 10:01:00;;;;;;;7.28;5.35;;;23.10;99.90;;;;;;5015229;28;20060;-93
2021/07/02 10:03:31;;;;;;;9.48;5.55;;;23.40;99.90;;;;;;5016742;28;20033;-93
2021/07/02 10:06:02;;;;;;;6.32;4.85;;;23.50;99.90;;;;;;5016850;28;20057;-93
2021/07/02 10:08:30;;;;;;;5.03;4.28;;;23.70;99.90;;;;;;5016990;28;20022;-94
2021/07/02 10:10:59;;;;;;;4.70;4.30;;;23.80;99.90;;;;;;5015790;28;20034;-93
2021/07/02 10:13:27;;;;;;;5.55;4.97;;;23.80;99.90;;;;;;5015392;28;20021;-93
2021/07/02 10:15:54;;;;;;;6.35;5.03;;;23.70;99.90;;;;;;5018356;28;20014;-96
2021/07/02 10:18:21;;;;;;;7.38;4.90;;;23.60;99.90;;;;;;5023836;28;20018;-96
2021/07/02 10:20:47;;;;;;;5.88;5.00;;;23.70;99.90;;;;;;5015205;28;20129;-95
2021/07/02 10:23:25;;;;;;;7.70;4.82;;;23.50;99.90;;;;;;5017658;28;20029;-95
2021/07/02 10:25:53;;;;;;;4.72;4.32;;;23.80;99.90;;;;;;5019214;28;20038;-96
2021/07/02 10:28:23;;;;;;;6.70;4.53;;;24.00;99.90;;;;;;5022812;28;20025;-96
2021/07/02 10:30:50;;;;;;;5.00;4.50;;;24.00;99.90;;;;;;5001350;28;20065;-95
2021/07/02 10:33:22;;;;;;;4.97;4.50;;;23.90;99.90;;;;;;5014005;28;20033;-96
2021/07/02 10:35:58;;;;;;;5.50;4.45;;;23.90;99.90;;;;;;5014948;28;20447;-94
2021/07/02 10:38:34;;;;;;;4.70;4.25;;;24.00;99.90;;;;;;5014402;28;20057;-94
2021/07/02 10:41:16;;;;;;;9.00;4.68;;;24.00;99.90;;;;;;5014699;28;20057;-94
2021/07/02 10:44:08;;;;;;;4.70;4.30;;;23.90;99.90;;;;;;5015135;28;20022;-92
2021/07/02 10:46:48;;;;;;;7.78;4.80;;;24.20;99.90;;;;;;5002850;28;20064;-94
2021/07/02 10:49:15;;;;;;;4.88;4.38;;;24.10;99.90;;;;;;4999808;28;20083;-94
2021/07/02 10:51:49;;;;;;;5.07;4.40;;;24.20;99.90;;;;;;5015139;28;20028;-95
2021/07/02 10:54:18;;;;;;;4.95;4.40;;;24.20;99.90;;;;;;5013254;28;20026;-91
2021/07/02 10:56:56;;;;;;;4.63;4.22;;;24.30;99.90;;;;;;5015203;28;20132;-89
2021/07/02 10:59:42;;;;;;;5.53;4.22;;;24.50;99.90;;;;;;5014383;28;20032;-91
2021/07/02 11:02:13;;;;;;;4.35;3.95;;;24.50;99.90;;;;;;5019703;28;20034;-93
2021/07/02 11:05:01;;;;;;;5.05;3.97;;;24.60;99.90;;;;;;5063896;23;20054;-94
2021/07/02 11:10:06;;;;;;;5.10;4.10;;;24.60;99.90;;;;;;5330160;23;20058;-96
2021/07/02 11:12:35;;;;;;;4.85;3.80;;;24.60;99.90;;;;;;5453533;23;20530;-93
2021/07/02 11:15:02;;;;;;;4.68;4.18;;;24.40;99.90;;;;;;5016130;28;20045;-95
2021/07/02 11:17:52;;;;;;;4.00;3.60;;;24.50;99.90;;;;;;5016157;28;20517;-94
2021/07/02 11:20:18;;;;;;;5.28;4.78;;;24.60;99.90;;;;;;5016101;28;20094;-95
2021/07/02 11:22:49;;;;;;;5.00;4.43;;;24.70;99.90;;;;;;5014789;28;20056;-95
2021/07/02 11:25:33;;;;;;;6.28;4.15;;;24.70;99.90;;;;;;5000797;28;20030;-95
2021/07/02 11:28:02;;;;;;;5.80;4.78;;;25.00;99.90;;;;;;5015699;28;20386;-94
2021/07/02 11:33:02;;;;;;;4.45;4.00;;;25.00;99.90;;;;;;5014889;28;20037;-94
2021/07/02 11:35:34;;;;;;;4.88;4.10;;;25.10;99.90;;;;;;5013712;28;20034;-94
2021/07/02 11:38:02;;;;;;;6.70;4.15;;;25.60;99.90;;;;;;5013120;28;20502;-94
2021/07/02 11:40:35;;;;;;;6.53;4.10;;;25.80;99.90;;;;;;5014890;28;20097;-94
2021/07/02 11:43:03;;;;;;;4.00;3.58;;;25.90;99.90;;;;;;5013693;28;20026;-93
2021/07/02 11:45:45;;;;;;;4.45;3.75;;;25.90;99.90;;;;;;5014444;28;20068;-95
2021/07/02 11:48:20;;;;;;;4.07;3.55;;;25.90;99.90;;;;;;5014368;28;20494;-94
2021/07/02 11:50:59;;;;;;;4.60;4.15;;;26.00;99.90;;;;;;5013865;28;20056;-94
2021/07/02 11:53:41;;;;;;;6.15;4.15;;;26.20;99.90;;;;;;5013240;28;20385;-95
2021/07/02 11:56:08;;;;;;;4.90;4.00;;;26.50;99.90;;;;;;5013406;28;20034;-94
2021/07/02 11:58:40;;;;;;;4.20;3.80;;;26.40;99.90;;;;;;5014151;28;20034;-94
2021/07/02 12:01:37;;;;;;;4.38;3.88;;;26.40;99.90;;;;;;5013642;28;20034;-94
2021/07/02 12:04:06;;;;;;;5.60;3.63;;;26.30;99.90;;;;;;5013314;28;20062;-94
2021/07/02 12:06:35;;;;;;;5.72;3.42;;;26.50;99.90;;;;;;5013361;28;20041;-94
2021/07/02 12:09:08;;;;;;;4.18;3.80;;;27.00;99.90;;;;;;5014298;28;20125;-95
2021/07/02 12:11:40;;;;;;;5.47;3.45;;;26.90;99.90;;;;;;5013398;28;20026;-94
2021/07/02 12:14:10;;;;;;;4.40;3.42;;;27.40;99.90;;;;;;5013851;28;20034;-94
2021/07/02 12:16:38;;;;;;;4.30;3.70;;;27.70;99.90;;;;;;5013172;28;20029;-94
2021/07/02 12:19:06;;;;;;;5.05;4.55;;;29.10;99.90;;;;;;5012911;28;20048;-94
2021/07/02 12:21:33;;;;;;;4.20;3.53;;;30.60;99.90;;;;;;5014253;28;20017;-94
2021/07/02 12:24:05;;;;;;;4.88;3.63;;;32.00;99.90;;;;;;5013800;28;20038;-95
2021/07/02 12:26:33;;;;;;;4.07;3.67;;;33.40;99.90;;;;;;5013801;28;20037;-94
2021/07/02 12:29:03;;;;;;;4.35;3.55;;;33.70;99.90;;;;;;5014094;28;20030;-93
2021/07/02 12:31:31;;;;;;;4.40;3.65;;;34.10;99.90;;;;;;5015529;28;20026;-95
2021/07/02 12:33:58;;;;;;;4.07;3.08;;;34.70;99.90;;;;;;5012789;28;20029;-96
2021/07/02 12:36:24;;;;;;;3.85;3.47;;;35.30;99.90;;;;;;5014028;28;20029;-94
2021/07/02 12:39:04;;;;;;;3.88;3.58;;;35.40;99.90;;;;;;5013305;28;20030;-95
2021/07/02 12:41:50;;;;;;;3.72;3.42;;;34.70;99.90;;;;;;5012966;28;20068;-95
2021/07/02 12:44:26;;;;;;;4.63;3.63;;;34.40;99.90;;;;;;5013812;28;20022;-95
2021/07/02 12:46:52;;;;;;;4.03;3.60;;;34.40;99.90;;;;;;5012355;28;20041;-95
2021/07/02 12:49:24;;;;;;;3.53;3.22;;;35.00;99.90;;;;;;5016757;28;20109;-96
2021/07/02 12:54:47;;;;;;;3.60;3.30;;;35.20;99.90;;;;;;5017431;28;20041;-95
2021/07/02 12:54:50;;;;;;;3.65;3.35;;;34.70;99.90;;;;;;5012628;28;20512;-95
2021/07/02 12:57:17;;;;;;;3.80;3.13;;;34.40;99.90;;;;;;5012274;28;20367;-96
2021/07/02 12:59:45;;;;;;;3.50;3.20;;;33.80;99.90;;;;;;5014389;28;20034;-95
2021/07/02 13:02:10;;;;;;;3.00;2.80;;;33.80;99.90;;;;;;5012526;28;20021;-95